AAL83 EGPH-KJFK
Flight info
| Callsign | AAL83 |
|---|---|
| Flight time | N/A |
| Altitude | 32000 |
| Route | GOSAM P600 FENIK DCT NORBO DCT MAC DCT MOLAK DCT RILED/N0445F340 DCT TOBOR/M078F340 NATD IBERG/N0449F360 N364A TUSKY DCT PLYMM PARCH4 |
| Aircraft | A21N/M-SDE3FGHIRWY/LB1 |
Departure
| Time | N/A |
|---|---|
| Airport | Edinburgh Airport (EGPH) |
Arrival
| Time | 2026-04-30 18:11 |
|---|---|
| Airport | John F. Kennedy International Airport (KJFK) |
| Time | Latitude | Longitude | Altitude | Speed | Heading |
|---|---|---|---|---|---|
| 2026-04-30 13:47 | 51.38147 | -31.86107 | 34181 ft | 467 kts | 266° |
| 2026-04-30 13:47 | 51.37775 | -31.91250 | 34393 ft | 467 kts | 266° |
| 2026-04-30 13:48 | 51.37402 | -31.96396 | 34582 ft | 467 kts | 266° |
| 2026-04-30 13:48 | 51.37028 | -32.01538 | 34767 ft | 467 kts | 266° |
| 2026-04-30 13:48 | 51.36651 | -32.06685 | 34966 ft | 466 kts | 266° |
| 2026-04-30 13:48 | 51.36272 | -32.11804 | 35180 ft | 465 kts | 266° |
| 2026-04-30 13:49 | 51.35892 | -32.16912 | 35377 ft | 464 kts | 266° |
| 2026-04-30 13:49 | 51.35510 | -32.22017 | 35559 ft | 463 kts | 266° |
| 2026-04-30 13:49 | 51.35127 | -32.27116 | 35728 ft | 462 kts | 266° |
| 2026-04-30 13:49 | 51.34741 | -32.32206 | 35884 ft | 462 kts | 266° |
| 2026-04-30 13:50 | 51.34354 | -32.37296 | 36045 ft | 462 kts | 265° |
| 2026-04-30 13:50 | 51.33573 | -32.47454 | 36376 ft | 460 kts | 265° |
| 2026-04-30 13:50 | 51.33180 | -32.52532 | 36389 ft | 461 kts | 266° |
| 2026-04-30 13:51 | 51.32387 | -32.62679 | 36395 ft | 462 kts | 265° |
| 2026-04-30 13:51 | 51.31586 | -32.72822 | 36399 ft | 462 kts | 264° |
| 2026-04-30 13:52 | 51.30774 | -32.82976 | 36399 ft | 462 kts | 264° |
| 2026-04-30 13:52 | 51.29952 | -32.93131 | 36404 ft | 462 kts | 265° |
| 2026-04-30 13:53 | 51.29123 | -33.03281 | 36398 ft | 462 kts | 264° |
| 2026-04-30 13:53 | 51.28284 | -33.13434 | 36403 ft | 462 kts | 264° |
| 2026-04-30 13:54 | 51.27438 | -33.23573 | 36400 ft | 462 kts | 264° |
| 2026-04-30 13:54 | 51.26579 | -33.33743 | 36403 ft | 463 kts | 264° |
| 2026-04-30 13:55 | 51.25712 | -33.43897 | 36400 ft | 463 kts | 264° |
| 2026-04-30 13:55 | 51.24836 | -33.54053 | 36402 ft | 463 kts | 264° |
| 2026-04-30 13:56 | 51.23951 | -33.64227 | 36403 ft | 464 kts | 264° |
| 2026-04-30 13:56 | 51.23059 | -33.74370 | 36407 ft | 464 kts | 263° |
| 2026-04-30 13:57 | 51.22158 | -33.84507 | 36408 ft | 464 kts | 263° |
| 2026-04-30 13:57 | 51.21245 | -33.94653 | 36408 ft | 464 kts | 263° |
| 2026-04-30 13:58 | 51.19861 | -34.09870 | 36410 ft | 465 kts | 263° |
| 2026-04-30 13:59 | 51.18925 | -34.20035 | 36413 ft | 466 kts | 263° |
| 2026-04-30 13:59 | 51.17973 | -34.30303 | 36415 ft | 473 kts | 263° |
| 2026-04-30 14:00 | 51.16998 | -34.40692 | 36410 ft | 477 kts | 263° |
| 2026-04-30 14:00 | 51.15514 | -34.56293 | 36410 ft | 476 kts | 263° |
| 2026-04-30 14:01 | 51.14515 | -34.66681 | 36413 ft | 477 kts | 262° |
| 2026-04-30 14:01 | 51.13503 | -34.77086 | 36421 ft | 477 kts | 262° |
| 2026-04-30 14:02 | 51.12482 | -34.87501 | 36425 ft | 478 kts | 262° |
| 2026-04-30 14:02 | 51.11452 | -34.97910 | 36427 ft | 479 kts | 262° |
| 2026-04-30 14:03 | 51.10412 | -35.08321 | 36423 ft | 478 kts | 262° |
| 2026-04-30 14:03 | 51.09363 | -35.18732 | 36423 ft | 477 kts | 262° |
| 2026-04-30 14:04 | 51.08306 | -35.29106 | 36424 ft | 477 kts | 262° |
| 2026-04-30 14:04 | 51.07238 | -35.39488 | 36424 ft | 478 kts | 262° |
| 2026-04-30 14:05 | 51.06162 | -35.49876 | 36426 ft | 478 kts | 262° |
| 2026-04-30 14:05 | 51.05074 | -35.60279 | 36425 ft | 478 kts | 262° |
| 2026-04-30 14:06 | 51.03427 | -35.75856 | 36422 ft | 478 kts | 261° |
| 2026-04-30 14:07 | 51.01759 | -35.91416 | 36425 ft | 478 kts | 261° |
| 2026-04-30 14:08 | 51.00070 | -36.06982 | 36427 ft | 479 kts | 261° |
| 2026-04-30 14:08 | 50.98357 | -36.22545 | 36427 ft | 478 kts | 261° |
| 2026-04-30 14:09 | 50.97207 | -36.32894 | 36431 ft | 478 kts | 261° |
| 2026-04-30 14:10 | 50.95464 | -36.48404 | 36434 ft | 478 kts | 261° |
| 2026-04-30 14:10 | 50.94290 | -36.58750 | 36435 ft | 479 kts | 261° |
| 2026-04-30 14:11 | 50.93105 | -36.69099 | 36435 ft | 479 kts | 260° |
| 2026-04-30 14:11 | 50.91911 | -36.79443 | 36436 ft | 479 kts | 260° |
| 2026-04-30 14:12 | 50.90707 | -36.89788 | 36428 ft | 479 kts | 260° |
| 2026-04-30 14:12 | 50.89497 | -37.00124 | 36425 ft | 479 kts | 260° |
| 2026-04-30 14:13 | 50.88275 | -37.10460 | 36425 ft | 479 kts | 260° |
| 2026-04-30 14:13 | 50.87045 | -37.20770 | 36424 ft | 479 kts | 260° |
| 2026-04-30 14:14 | 50.85807 | -37.31084 | 36423 ft | 479 kts | 260° |
| 2026-04-30 14:14 | 50.84557 | -37.41402 | 36420 ft | 479 kts | 259° |
| 2026-04-30 14:15 | 50.83298 | -37.51719 | 36422 ft | 479 kts | 260° |
| 2026-04-30 14:15 | 50.82031 | -37.62027 | 36421 ft | 479 kts | 259° |
| 2026-04-30 14:16 | 50.80756 | -37.72317 | 36424 ft | 478 kts | 259° |
| 2026-04-30 14:16 | 50.79473 | -37.82602 | 36422 ft | 479 kts | 259° |
| 2026-04-30 14:17 | 50.78177 | -37.92900 | 36421 ft | 479 kts | 259° |
| 2026-04-30 14:17 | 50.76874 | -38.03172 | 36424 ft | 478 kts | 259° |
| 2026-04-30 14:18 | 50.75562 | -38.13438 | 36425 ft | 478 kts | 259° |
| 2026-04-30 14:18 | 50.73581 | -38.28810 | 36428 ft | 479 kts | 259° |
| 2026-04-30 14:19 | 50.71579 | -38.44184 | 36436 ft | 478 kts | 259° |
| 2026-04-30 14:20 | 50.70233 | -38.54412 | 36438 ft | 478 kts | 259° |
| 2026-04-30 14:20 | 50.68200 | -38.69742 | 36438 ft | 478 kts | 258° |
| 2026-04-30 14:21 | 50.66830 | -38.79970 | 36438 ft | 479 kts | 258° |
| 2026-04-30 14:22 | 50.64755 | -38.95318 | 36437 ft | 478 kts | 258° |
| 2026-04-30 14:22 | 50.62661 | -39.10657 | 36435 ft | 478 kts | 258° |
| 2026-04-30 14:23 | 50.59840 | -39.31072 | 36424 ft | 479 kts | 258° |
| 2026-04-30 14:24 | 50.57692 | -39.46412 | 36418 ft | 479 kts | 258° |
| 2026-04-30 14:25 | 50.54801 | -39.66826 | 36421 ft | 479 kts | 257° |
| 2026-04-30 14:26 | 50.52604 | -39.82134 | 36426 ft | 479 kts | 257° |
| 2026-04-30 14:27 | 50.50427 | -39.97443 | 36423 ft | 480 kts | 259° |
| 2026-04-30 14:27 | 50.49550 | -40.07800 | 36425 ft | 480 kts | 265° |
| 2026-04-30 14:28 | 50.48689 | -40.23386 | 36429 ft | 479 kts | 265° |
| 2026-04-30 14:28 | 50.48099 | -40.33780 | 36426 ft | 480 kts | 265° |
| 2026-04-30 14:29 | 50.46871 | -40.54569 | 36425 ft | 481 kts | 265° |
| 2026-04-30 14:31 | 50.45275 | -40.80562 | 36427 ft | 480 kts | 264° |
| 2026-04-30 14:31 | 50.44291 | -40.96130 | 36435 ft | 480 kts | 264° |
| 2026-04-30 14:32 | 50.43286 | -41.11695 | 36435 ft | 481 kts | 264° |
| 2026-04-30 14:33 | 50.42604 | -41.22088 | 36435 ft | 481 kts | 264° |
| 2026-04-30 14:33 | 50.41563 | -41.37670 | 36434 ft | 480 kts | 264° |
| 2026-04-30 14:34 | 50.40856 | -41.48052 | 36427 ft | 480 kts | 264° |
| 2026-04-30 14:34 | 50.40141 | -41.58432 | 36416 ft | 481 kts | 264° |
| 2026-04-30 14:35 | 50.39053 | -41.73991 | 36418 ft | 480 kts | 263° |
| 2026-04-30 14:36 | 50.38316 | -41.84348 | 36422 ft | 480 kts | 263° |
| 2026-04-30 14:36 | 50.37570 | -41.94703 | 36426 ft | 480 kts | 263° |
| 2026-04-30 14:37 | 50.36815 | -42.05064 | 36425 ft | 481 kts | 263° |
| 2026-04-30 14:37 | 50.36048 | -42.15437 | 36426 ft | 480 kts | 263° |
| 2026-04-30 14:38 | 50.35274 | -42.25787 | 36425 ft | 481 kts | 263° |
| 2026-04-30 14:38 | 50.34490 | -42.36141 | 36425 ft | 481 kts | 263° |
| 2026-04-30 14:39 | 50.33697 | -42.46485 | 36427 ft | 480 kts | 263° |
| 2026-04-30 14:39 | 50.32897 | -42.56819 | 36425 ft | 480 kts | 263° |
| 2026-04-30 14:40 | 50.31676 | -42.72330 | 36425 ft | 481 kts | 263° |
| 2026-04-30 14:40 | 50.30851 | -42.82660 | 36426 ft | 480 kts | 262° |
| 2026-04-30 14:41 | 50.30019 | -42.92968 | 36425 ft | 480 kts | 263° |
| 2026-04-30 14:41 | 50.29177 | -43.03286 | 36427 ft | 480 kts | 263° |
| 2026-04-30 14:42 | 50.28325 | -43.13604 | 36429 ft | 479 kts | 263° |
| 2026-04-30 14:42 | 50.27467 | -43.23892 | 36433 ft | 479 kts | 262° |
| 2026-04-30 14:43 | 50.26599 | -43.34169 | 36432 ft | 479 kts | 263° |
| 2026-04-30 14:43 | 50.25721 | -43.44453 | 36432 ft | 479 kts | 263° |
| 2026-04-30 14:44 | 50.24837 | -43.54721 | 36434 ft | 479 kts | 263° |
| 2026-04-30 14:44 | 50.23942 | -43.64986 | 36433 ft | 478 kts | 263° |
| 2026-04-30 14:45 | 50.23040 | -43.75230 | 36428 ft | 479 kts | 262° |
| 2026-04-30 14:45 | 50.22129 | -43.85494 | 36426 ft | 479 kts | 262° |
| 2026-04-30 14:46 | 50.21207 | -43.95743 | 36425 ft | 478 kts | 262° |
| 2026-04-30 14:46 | 50.20277 | -44.05978 | 36428 ft | 477 kts | 262° |
| 2026-04-30 14:47 | 50.19340 | -44.16206 | 36429 ft | 477 kts | 262° |
| 2026-04-30 14:47 | 50.18393 | -44.26430 | 36430 ft | 477 kts | 262° |
| 2026-04-30 14:48 | 50.17438 | -44.36650 | 36430 ft | 478 kts | 262° |
| 2026-04-30 14:48 | 50.16473 | -44.46864 | 36429 ft | 478 kts | 262° |
| 2026-04-30 14:49 | 50.15500 | -44.57071 | 36428 ft | 478 kts | 262° |
| 2026-04-30 14:49 | 50.14520 | -44.67263 | 36428 ft | 477 kts | 261° |
| 2026-04-30 14:50 | 50.13032 | -44.82524 | 36428 ft | 476 kts | 261° |
| 2026-04-30 14:51 | 50.11526 | -44.97760 | 36428 ft | 477 kts | 261° |
| 2026-04-30 14:52 | 50.10002 | -45.12992 | 36430 ft | 476 kts | 261° |
| 2026-04-30 14:52 | 50.08461 | -45.28193 | 36427 ft | 476 kts | 261° |
| 2026-04-30 14:53 | 50.06895 | -45.43374 | 36426 ft | 476 kts | 261° |
| 2026-04-30 14:54 | 50.04780 | -45.63624 | 36428 ft | 475 kts | 261° |
| 2026-04-30 14:55 | 50.03176 | -45.78763 | 36432 ft | 474 kts | 260° |
| 2026-04-30 14:56 | 50.01003 | -45.98924 | 36438 ft | 474 kts | 260° |
| 2026-04-30 14:57 | 49.99353 | -46.14024 | 36428 ft | 473 kts | 260° |
| 2026-04-30 14:58 | 49.97128 | -46.34096 | 36426 ft | 473 kts | 260° |
| 2026-04-30 14:58 | 49.95438 | -46.49136 | 36426 ft | 472 kts | 260° |
| 2026-04-30 15:00 | 49.92577 | -46.74129 | 36424 ft | 471 kts | 259° |
| 2026-04-30 15:01 | 49.90259 | -46.94058 | 36425 ft | 472 kts | 259° |
| 2026-04-30 15:01 | 49.88496 | -47.09003 | 36425 ft | 471 kts | 259° |
| 2026-04-30 15:02 | 49.87313 | -47.18942 | 36423 ft | 470 kts | 259° |
| 2026-04-30 15:03 | 49.85527 | -47.33800 | 36780 ft | 468 kts | 258° |
| 2026-04-30 15:03 | 49.84329 | -47.43658 | 36562 ft | 466 kts | 258° |
| 2026-04-30 15:04 | 49.83130 | -47.53454 | 36450 ft | 464 kts | 258° |
| 2026-04-30 15:04 | 49.81318 | -47.68131 | 36432 ft | 463 kts | 257° |
| 2026-04-30 15:06 | 49.78271 | -47.92462 | 36428 ft | 462 kts | 257° |
| 2026-04-30 15:07 | 49.75799 | -48.11873 | 36429 ft | 461 kts | 258° |
| 2026-04-30 15:08 | 49.73301 | -48.31225 | 36427 ft | 460 kts | 258° |
| 2026-04-30 15:09 | 49.70130 | -48.55410 | 36419 ft | 462 kts | 258° |
| 2026-04-30 15:10 | 49.67560 | -48.74726 | 36425 ft | 460 kts | 257° |
| 2026-04-30 15:11 | 49.63654 | -49.03576 | 36419 ft | 459 kts | 257° |
| 2026-04-30 15:13 | 49.60347 | -49.27560 | 36406 ft | 458 kts | 257° |
| 2026-04-30 15:14 | 49.55655 | -49.60924 | 36405 ft | 456 kts | 257° |
| 2026-04-30 15:17 | 49.49197 | -50.03424 | 36394 ft | 452 kts | 250° |
| 2026-04-30 15:19 | 49.40517 | -50.39455 | 36379 ft | 450 kts | 248° |
| 2026-04-30 17:39 | 41.63707 | -71.52712 | 33410 ft | 390 kts | 223° |
| 2026-04-30 17:41 | 41.46765 | -71.71595 | 28020 ft | 396 kts | 222° |
| 2026-04-30 17:42 | 41.42593 | -71.76211 | 27082 ft | 385 kts | 222° |
| 2026-04-30 17:42 | 41.36519 | -71.82922 | 25666 ft | 372 kts | 222° |
| 2026-04-30 17:43 | 41.32571 | -71.87274 | 24732 ft | 366 kts | 221° |
| 2026-04-30 17:44 | 41.26663 | -71.93781 | 23826 ft | 376 kts | 221° |
| 2026-04-30 17:44 | 41.20578 | -72.00458 | 23825 ft | 377 kts | 221° |
| 2026-04-30 17:46 | 41.10720 | -72.11937 | 21549 ft | 381 kts | 234° |
| 2026-04-30 17:47 | 41.06872 | -72.24545 | 19556 ft | 362 kts | 250° |
| 2026-04-30 17:48 | 41.03812 | -72.36877 | 17691 ft | 344 kts | 250° |
| 2026-04-30 17:48 | 41.01590 | -72.45765 | 16289 ft | 334 kts | 250° |
| 2026-04-30 17:49 | 40.98711 | -72.57240 | 14460 ft | 323 kts | 250° |
| 2026-04-30 17:50 | 40.95906 | -72.68357 | 12754 ft | 311 kts | 250° |
| 2026-04-30 17:51 | 40.94017 | -72.75833 | 12275 ft | 262 kts | 250° |
| 2026-04-30 17:52 | 40.91067 | -72.81744 | 11998 ft | 267 kts | 219° |
| 2026-04-30 17:53 | 40.83525 | -72.88987 | 11970 ft | 266 kts | 218° |
| 2026-04-30 17:54 | 40.77528 | -72.94724 | 10427 ft | 264 kts | 218° |
| 2026-04-30 17:55 | 40.71591 | -73.00389 | 8777 ft | 263 kts | 218° |
| 2026-04-30 17:56 | 40.68573 | -73.08309 | 7110 ft | 259 kts | 270° |
| 2026-04-30 17:57 | 40.68637 | -73.15438 | 5881 ft | 258 kts | 270° |
| 2026-04-30 17:58 | 40.68674 | -73.22509 | 4992 ft | 257 kts | 271° |
| 2026-04-30 17:59 | 40.69080 | -73.31944 | 4969 ft | 257 kts | 297° |
| 2026-04-30 18:00 | 40.73329 | -73.39525 | 4956 ft | 240 kts | 308° |
| 2026-04-30 18:00 | 40.76611 | -73.43653 | 4936 ft | 196 kts | 343° |
| 2026-04-30 18:01 | 40.79134 | -73.44356 | 4501 ft | 183 kts | 348° |
| 2026-04-30 18:02 | 40.82812 | -73.45302 | 3515 ft | 181 kts | 348° |
| 2026-04-30 18:02 | 40.86377 | -73.46657 | 2488 ft | 179 kts | 317° |
| 2026-04-30 18:03 | 40.87233 | -73.51370 | 1991 ft | 180 kts | 272° |
| 2026-04-30 18:04 | 40.86438 | -73.56273 | 1988 ft | 181 kts | 258° |
| 2026-04-30 18:05 | 40.84556 | -73.62342 | 1989 ft | 186 kts | 219° |
| 2026-04-30 18:06 | 40.79471 | -73.64009 | 1987 ft | 188 kts | 204° |
| 2026-04-30 18:07 | 40.74940 | -73.67356 | 1980 ft | 188 kts | 213° |
| 2026-04-30 18:08 | 40.71563 | -73.69988 | 1676 ft | 180 kts | 212° |
| 2026-04-30 18:09 | 40.67880 | -73.72861 | 797 ft | 140 kts | 212° |
| 2026-04-30 18:10 | 40.64559 | -73.75447 | 76 ft | 136 kts | 212° |
| 2026-04-30 18:11 | 40.62935 | -73.76881 | 15 ft | 15 kts | 246° |
| 2026-04-30 18:11 | 40.63056 | -73.77246 | 15 ft | 15 kts | 301° |
| 2026-04-30 18:12 | 40.63188 | -73.77536 | 15 ft | 6 kts | 302° |
| 2026-04-30 18:13 | 40.63281 | -73.77740 | 15 ft | 16 kts | 300° |
| 2026-04-30 18:13 | 40.63468 | -73.78177 | 15 ft | 19 kts | 300° |
| 2026-04-30 18:14 | 40.63606 | -73.78472 | 16 ft | 18 kts | 302° |
| 2026-04-30 18:15 | 40.63798 | -73.78906 | 16 ft | 18 kts | 300° |
| 2026-04-30 18:15 | 40.64010 | -73.79376 | 16 ft | 20 kts | 301° |
| 2026-04-30 18:16 | 40.64232 | -73.79504 | 17 ft | 18 kts | 2° |
| 2026-04-30 18:16 | 40.64479 | -73.79500 | 17 ft | 17 kts | 356° |
| 2026-04-30 18:17 | 40.64594 | -73.79497 | 17 ft | 13 kts | 31° |
| 2026-04-30 18:17 | 40.64611 | -73.79427 | 17 ft | 8 kts | 88° |
| 2026-04-30 18:17 | 40.64608 | -73.79294 | 18 ft | 2 kts | 36° |
| 2026-04-30 18:18 | 40.64628 | -73.79294 | 18 ft | 4 kts | 341° |
| 2026-04-30 18:18 | 40.64660 | -73.79311 | 18 ft | 4 kts | 336° |
| 2026-04-30 18:18 | 40.64678 | -73.79322 | 18 ft | 0 kts | 336° |
| 2026-04-30 18:18 | 40.64680 | -73.79323 | 18 ft | 0 kts | 336° |